Latest Coastal Weather Observations for Walpole North

IDW60701

Issued at 4:32 pm WST Friday 29 May 2015 (issued every 10 minutes, with the page automatically refreshed every 10 minutes)

About coastal observations | Map of coastal stations | Coastal observations for WA | Marine services | Other Formats
Station Details ID: 009998 Name: NORTH WALPOLE Lat: -34.95 Lon: 116.72 Height: 73.0 m
Data from the previous 72 hours. | See also: Recent months at Walpole North
Date/Time
WST
Temp

°C
Wind Pressure Rain
since 9am
mm
Weather Cloud Vis
km
Sea
Height
m
Swell
Dir
 
Speed
knots
Gust
knots
hPa Trend Height
m
Period
s
Dir
29/04:30pm 13.6 SSW 3 5 1025.7 - 0.0 - - - - - - -
29/04:00pm 14.3 CALM 0 0 1025.5 - 0.0 - - - - - - -
29/03:30pm 14.7 SE 3 4 1025.5 - 0.0 - - - - - - -
29/03:00pm 14.8 SSW 1 4 1025.4 - 0.0 - - - - - - -
29/02:30pm 14.8 CALM 0 0 1025.4 - 0.0 - - - - - - -
29/02:00pm 14.7 S 3 5 1025.5 - 0.0 - - - - - - -
29/01:30pm 14.9 CALM 0 0 1025.6 - 0.0 - - - - - - -
29/01:00pm 14.9 WSW 1 4 1025.8 - 0.0 - - - - - - -
29/12:30pm 14.8 NW 3 7 1026.0 - 0.0 - - - - - - -
29/12:00pm 15.3 W 2 6 1026.4 - 0.0 - - - - - - -
29/11:30am 14.6 NW 5 8 1026.7 - 0.0 - - - - - - -
29/11:00am 14.1 CALM 0 0 1027.1 - 0.0 - - - - - - -
29/10:30am 13.8 NW 4 6 1027.5 - 0.0 - - - - - - -
29/10:00am 12.1 CALM 0 0 1027.6 - 0.0 - - - - - - -
29/09:30am 11.6 CALM 0 0 1027.7 - 0.0 - - - - - - -
29/09:00am 10.4 CALM 0 0 1027.6 - 2.0 - - - - - - -
29/08:30am 8.7 CALM 0 0 1027.5 - 2.0 - - - - - - -
29/08:00am 8.2 CALM 0 0 1027.3 - 2.0 - - - - - - -
29/07:30am 7.6 CALM 0 0 1027.0 - 2.0 - - - - - - -
29/07:00am 8.0 CALM 0 0 1026.8 - 2.0 - - - - - - -
29/06:30am 8.2 CALM 0 0 1026.7 - 2.0 - - - - - - -
29/06:00am 8.4 CALM 0 0 1026.4 - 2.0 - - - - - - -
29/05:30am 7.8 CALM 0 0 1026.3 - 2.0 - - - - - - -
29/05:00am 8.0 CALM 0 0 1026.2 - 2.0 - - - - - - -
29/04:30am 8.4 CALM 0 0 1026.3 - 2.0 - - - - - - -
29/04:00am 8.9 CALM 0 0 1026.4 - 2.0 - - - - - - -
29/03:30am 9.1 CALM 0 0 1026.5 - 2.0 - - - - - - -
29/03:00am 8.9 CALM 0 0 1026.5 - 2.0 - - - - - - -
29/02:30am 9.1 CALM 0 0 1026.6 - 2.0 - - - - - - -
29/02:00am 9.3 CALM 0 0 1026.5 - 2.0 - - - - - - -
29/01:30am 9.0 CALM 0 0 1026.6 - 2.0 - - - - - - -
29/01:00am 9.3 CALM 0 0 1026.6 - 2.0 - - - - - - -
29/12:30am 9.2 CALM 0 0 1026.8 - 2.0 - - - - - - -
29/12:00am 9.4 CALM 0 0 1026.9 - 2.0 - - - - - - -
 
Date/Time
WST
Temp

°C
Wind Pressure Rain
since 9am
mm
Weather Cloud Vis
km
Sea
Height
m
Swell
Dir
 
Speed
knots
Gust
knots
hPa Trend Height
m
Period
s
Dir
28/11:30pm 9.6 CALM 0 0 1026.9 - 2.0 - - - - - - -
28/11:00pm 9.4 CALM 0 0 1027.0 - 2.0 - - - - - - -
28/10:30pm 9.4 CALM 0 0 1027.0 - 2.0 - - - - - - -
28/10:00pm 9.7 CALM 0 0 1027.1 - 1.8 - - - - - - -
28/09:30pm 9.4 CALM 0 0 1027.1 - 1.8 - - - - - - -
28/09:00pm 9.1 CALM 0 0 1026.9 - 1.8 - - - - - - -
28/08:30pm 9.7 CALM 0 0 1026.6 - 1.8 - - - - - - -
28/08:00pm 9.9 N 4 6 1026.4 - 1.8 - - - - - - -
28/07:30pm 10.2 CALM 0 0 1026.3 - 1.2 - - - - - - -
28/07:00pm 10.0 CALM 0 0 1025.9 - 1.2 - - - - - - -
28/06:30pm 10.3 CALM 0 0 1025.7 - 1.2 - - - - - - -
28/06:00pm 10.1 NW 1 4 1025.4 - 1.0 - - - - - - -
28/05:30pm 10.7 W 1 4 1025.2 - 1.0 - - - - - - -
28/05:00pm 11.2 W 2 5 1025.1 - 1.0 - - - - - - -
28/04:30pm 11.4 CALM 0 0 1025.1 - 1.0 - - - - - - -
28/04:00pm 11.7 S 4 11 1025.1 - 0.2 - - - - - - -
28/03:30pm 13.4 SSE 4 7 1024.7 - 0.0 - - - - - - -
28/03:00pm 13.4 SSE 6 9 1024.5 - 0.0 - - - - - - -
28/02:30pm 13.8 SE 7 11 1024.4 - 0.0 - - - - - - -
28/02:00pm 13.9 SE 6 10 1024.4 - 0.0 - - - - - - -
28/01:30pm 13.3 SE 9 11 1024.6 - 0.0 - - - - - - -
28/01:00pm 13.8 SSE 9 13 1024.7 - 0.0 - - - - - - -
28/12:30pm 14.1 SSE 5 9 1024.7 - 0.0 - - - - - - -
28/12:00pm 13.5 SSE 8 11 1025.0 - 0.0 - - - - - - -
28/11:30am 13.4 SE 10 13 1025.2 - 0.0 - - - - - - -
28/11:00am 14.5 SSE 7 13 1025.4 - 0.0 - - - - - - -
28/10:30am 13.2 SE 9 15 1025.4 - 0.0 - - - - - - -
28/10:00am 13.4 SE 7 10 1025.4 - 0.0 - - - - - - -
28/09:30am 12.4 SSE 4 8 1025.3 - 0.0 - - - - - - -
28/09:00am 11.6 CALM 0 0 1025.0 - 0.2 - - - - - - -
28/08:30am 11.4 CALM 0 0 1024.7 - 0.2 - - - - - - -
28/08:00am 10.7 CALM 0 0 1024.5 - 0.2 - - - - - - -
28/07:30am 10.3 CALM 0 0 1024.1 - 0.2 - - - - - - -
28/07:00am 10.4 CALM 0 0 1023.9 - 0.2 - - - - - - -
28/06:30am 10.9 SSW 2 6 1023.6 - 0.2 - - - - - - -
28/06:00am 10.5 WSW 1 5 1023.4 - 0.2 - - - - - - -
28/05:30am 10.5 SW 2 6 1023.2 - 0.2 - - - - - - -
28/05:00am 10.4 SW 2 5 1023.1 - 0.2 - - - - - - -
28/04:30am 9.7 CALM 0 0 1022.9 - 0.0 - - - - - - -
28/04:00am 9.8 CALM 0 0 1022.7 - 0.0 - - - - - - -
28/03:30am 10.3 NW 1 4 1022.7 - 0.0 - - - - - - -
28/03:00am 10.3 CALM 0 0 1022.7 - 0.0 - - - - - - -
28/02:30am 10.4 CALM 0 0 1022.7 - 0.0 - - - - - - -
28/02:00am 10.8 SSW 4 8 1022.6 - 0.0 - - - - - - -
28/01:30am 10.6 CALM 0 0 1022.5 - 0.0 - - - - - - -
28/01:00am 10.4 CALM 0 0 1022.5 - 0.0 - - - - - - -
28/12:30am 10.1 SW 1 5 1022.6 - 0.0 - - - - - - -
28/12:00am 10.5 WSW 1 6 1022.5 - 0.0 - - - - - - -
 
Date/Time
WST
Temp

°C
Wind Pressure Rain
since 9am
mm
Weather Cloud Vis
km
Sea
Height
m
Swell
Dir
 
Speed
knots
Gust
knots
hPa Trend Height
m
Period
s
Dir
27/11:30pm 10.6 WSW 5 8 1022.3 - 0.0 - - - - - - -
27/11:00pm 10.5 CALM 0 0 1022.1 - 0.0 - - - - - - -
27/10:30pm 11.3 SSW 4 7 1022.1 - 0.0 - - - - - - -
27/10:00pm 12.1 SW 5 10 1022.0 - 0.0 - - - - - - -
27/09:30pm 12.6 SW 6 13 1021.9 - 0.0 - - - - - - -
27/09:00pm 13.0 SSW 7 10 1021.7 - 0.0 - - - - - - -
27/08:30pm 13.0 SW 5 8 1021.5 - 0.0 - - - - - - -
27/08:00pm 12.9 SSW 7 13 1021.4 - 0.0 - - - - - - -
27/07:30pm 12.6 SSW 5 7 1021.2 - 0.0 - - - - - - -
27/07:00pm 13.0 SSW 7 11 1021.0 - 0.0 - - - - - - -
27/06:30pm 13.0 SSW 6 10 1020.7 - 0.0 - - - - - - -
27/06:00pm 13.2 SSW 9 13 1020.6 - 0.0 - - - - - - -
27/05:30pm 13.8 SSW 7 12 1020.2 - 0.0 - - - - - - -
27/05:00pm 14.1 SW 7 11 1020.0 - 0.0 - - - - - - -
27/04:30pm 14.1 SW 5 9 1020.0 - 0.0 - - - - - - -
27/04:00pm 14.4 WSW 5 8 1020.1 - 0.0 - - - - - - -
27/03:30pm 14.7 WSW 7 11 1020.0 - 0.0 - - - - - - -
27/03:00pm 14.9 SW 7 11 1020.1 - 0.0 - - - - - - -
27/02:30pm 15.0 WSW 7 11 1020.0 - 0.0 - - - - - - -
27/02:00pm 14.9 W 9 15 1020.0 - 0.0 - - - - - - -
27/01:30pm 15.9 SW 8 14 1020.1 - 0.0 - - - - - - -
27/01:00pm 15.7 W 6 8 1020.4 - 0.0 - - - - - - -
27/12:30pm 14.7 WSW 8 13 1020.8 - 0.0 - - - - - - -
27/12:00pm 15.3 SW 7 12 1021.1 - 0.0 - - - - - - -
27/11:30am 15.8 W 5 7 1021.3 - 0.0 - - - - - - -
27/11:00am 14.5 WNW 5 7 1021.7 - 0.0 - - - - - - -
27/10:30am 13.7 WNW 6 8 1022.1 - 0.0 - - - - - - -
27/10:00am 13.6 NW 5 6 1022.2 - 0.0 - - - - - - -
27/09:30am 13.2 WNW 5 7 1022.2 - 0.0 - - - - - - -
27/09:00am 12.7 W 4 6 1022.1 - 0.0 - - - - - - -
27/08:30am 11.5 W 4 6 1022.2 - 0.0 - - - - - - -
27/08:00am 11.4 WNW 5 7 1022.1 - 0.0 - - - - - - -
27/07:30am 11.0 WNW 6 8 1022.1 - 0.0 - - - - - - -
27/07:00am 10.8 NW 5 7 1022.0 - 0.0 - - - - - - -
27/06:30am 10.8 NW 6 8 1021.7 - 0.0 - - - - - - -
27/06:00am 10.4 CALM 0 0 1021.7 - 0.0 - - - - - - -
27/05:30am 10.7 WNW 4 6 1021.7 - 0.0 - - - - - - -
27/05:00am 11.0 WNW 5 7 1021.7 - 0.0 - - - - - - -
27/04:30am 10.1 NW 4 7 1021.7 - 0.0 - - - - - - -
27/04:00am 10.5 WNW 5 7 1021.8 - 0.0 - - - - - - -
27/03:30am 10.5 WNW 5 7 1021.9 - 0.0 - - - - - - -
27/03:00am 10.1 WNW 4 6 1022.0 - 0.0 - - - - - - -
27/02:30am 10.5 NW 5 7 1022.0 - 0.0 - - - - - - -
27/02:00am 10.2 NW 4 5 1022.0 - 0.0 - - - - - - -
27/01:30am 10.0 WNW 3 4 1022.1 - 0.0 - - - - - - -
27/01:00am 10.7 WNW 4 5 1022.4 - 0.0 - - - - - - -
27/12:30am 10.8 NNW 5 7 1022.6 - 0.0 - - - - - - -
27/12:00am 10.9 NW 5 7 1023.0 - 0.0 - - - - - - -
 
Date/Time
WST
Temp

°C
Wind Pressure Rain
since 9am
mm
Weather Cloud Vis
km
Sea
Height
m
Swell
Dir
 
Speed
knots
Gust
knots
hPa Trend Height
m
Period
s
Dir
26/11:30pm 10.9 CALM 0 0 1023.2 - 0.0 - - - - - - -
26/11:00pm 10.8 CALM 0 0 1023.3 - 0.0 - - - - - - -
26/10:30pm 11.1 WNW 2 4 1023.4 - 0.0 - - - - - - -
26/10:00pm 11.1 WNW 4 5 1023.4 - 0.0 - - - - - - -
26/09:30pm 11.2 WNW 5 8 1023.5 - 0.0 - - - - - - -
26/09:00pm 11.2 NW 4 6 1023.4 - 0.0 - - - - - - -
26/08:30pm 11.1 WNW 3 5 1023.4 - 0.0 - - - - - - -
26/08:00pm 11.3 CALM 0 0 1023.4 - 0.0 - - - - - - -
26/07:30pm 11.4 WNW 3 5 1023.3 - 0.0 - - - - - - -
26/07:00pm 11.6 WNW 4 5 1023.1 - 0.0 - - - - - - -
26/06:30pm 11.6 SW 1 4 1022.9 - 0.0 - - - - - - -
26/06:00pm 11.5 SW 3 4 1022.9 - 0.0 - - - - - - -
26/05:30pm 11.9 SW 2 4 1022.8 - 0.0 - - - - - - -
26/05:00pm 12.6 WSW 5 7 1022.6 - 0.0 - - - - - - -

Other Formats:

Comma delimited format used in spreadsheet applications
http://www.bom.gov.au/fwo/IDW60701/IDW60701.95647.axf

JavaScript Object Notation format (JSON) in row-major order
http://www.bom.gov.au/fwo/IDW60701/IDW60701.95647.json